sensor_id;sensor_type;location;lat;lon;timestamp;temperature;humidity
48752;DHT22;34544;48.836;9.174;2023-09-18T00:00:49;19.20;99.90
48752;DHT22;34544;48.836;9.174;2023-09-18T00:03:21;19.20;99.90
48752;DHT22;34544;48.836;9.174;2023-09-18T00:05:50;19.10;99.90
48752;DHT22;34544;48.836;9.174;2023-09-18T00:08:17;19.10;99.90
48752;DHT22;34544;48.836;9.174;2023-09-18T00:10:47;19.10;99.90
48752;DHT22;34544;48.836;9.174;2023-09-18T00:13:13;19.10;99.90
48752;DHT22;34544;48.836;9.174;2023-09-18T00:15:39;19.00;99.90
48752;DHT22;34544;48.836;9.174;2023-09-18T00:18:06;19.00;99.90
48752;DHT22;34544;48.836;9.174;2023-09-18T00:20:33;19.00;99.90
48752;DHT22;34544;48.836;9.174;2023-09-18T00:22:59;19.00;99.90
48752;DHT22;34544;48.836;9.174;2023-09-18T00:25:24;19.00;99.90
48752;DHT22;34544;48.836;9.174;2023-09-18T00:27:50;19.00;99.90
48752;DHT22;34544;48.836;9.174;2023-09-18T00:30:17;19.00;99.90
48752;DHT22;34544;48.836;9.174;2023-09-18T00:32:43;19.00;99.90
48752;DHT22;34544;48.836;9.174;2023-09-18T00:35:08;19.00;99.90
48752;DHT22;34544;48.836;9.174;2023-09-18T00:37:34;19.00;99.90
48752;DHT22;34544;48.836;9.174;2023-09-18T00:40:03;19.00;99.90
48752;DHT22;34544;48.836;9.174;2023-09-18T00:42:30;19.00;99.90
48752;DHT22;34544;48.836;9.174;2023-09-18T00:44:56;19.00;99.90
48752;DHT22;34544;48.836;9.174;2023-09-18T00:47:22;19.00;99.90
48752;DHT22;34544;48.836;9.174;2023-09-18T00:49:49;19.10;99.90
48752;DHT22;34544;48.836;9.174;2023-09-18T00:52:15;19.10;99.90
48752;DHT22;34544;48.836;9.174;2023-09-18T00:54:42;19.10;99.90
48752;DHT22;34544;48.836;9.174;2023-09-18T00:57:09;19.20;99.90
48752;DHT22;34544;48.836;9.174;2023-09-18T00:59:37;19.20;99.90
48752;DHT22;34544;48.836;9.174;2023-09-18T01:02:03;19.20;99.90
48752;DHT22;34544;48.836;9.174;2023-09-18T01:04:30;19.20;99.90
48752;DHT22;34544;48.836;9.174;2023-09-18T01:06:59;19.30;99.90
48752;DHT22;34544;48.836;9.174;2023-09-18T01:09:27;19.40;99.90
48752;DHT22;34544;48.836;9.174;2023-09-18T01:12:11;19.30;99.90
48752;DHT22;34544;48.836;9.174;2023-09-18T01:14:57;19.40;99.90
48752;DHT22;34544;48.836;9.174;2023-09-18T01:17:26;19.40;99.90
48752;DHT22;34544;48.836;9.174;2023-09-18T01:19:52;19.50;99.90
48752;DHT22;34544;48.836;9.174;2023-09-18T01:22:19;19.50;99.90
48752;DHT22;34544;48.836;9.174;2023-09-18T01:24:46;19.50;99.90
48752;DHT22;34544;48.836;9.174;2023-09-18T01:27:17;19.60;99.90
48752;DHT22;34544;48.836;9.174;2023-09-18T01:29:44;19.60;99.90
48752;DHT22;34544;48.836;9.174;2023-09-18T01:32:10;19.60;99.90
48752;DHT22;34544;48.836;9.174;2023-09-18T01:34:38;19.60;99.90
48752;DHT22;34544;48.836;9.174;2023-09-18T01:37:07;19.70;99.90
48752;DHT22;34544;48.836;9.174;2023-09-18T01:39:35;19.70;99.90
48752;DHT22;34544;48.836;9.174;2023-09-18T01:42:03;19.70;99.90
48752;DHT22;34544;48.836;9.174;2023-09-18T01:44:35;19.80;99.90
48752;DHT22;34544;48.836;9.174;2023-09-18T01:47:04;19.80;99.90
48752;DHT22;34544;48.836;9.174;2023-09-18T01:49:36;19.90;99.90
48752;DHT22;34544;48.836;9.174;2023-09-18T01:52:06;19.90;99.90
48752;DHT22;34544;48.836;9.174;2023-09-18T01:54:33;20.00;99.90
48752;DHT22;34544;48.836;9.174;2023-09-18T01:59:26;20.50;99.90
48752;DHT22;34544;48.836;9.174;2023-09-18T02:01:52;20.80;99.90
48752;DHT22;34544;48.836;9.174;2023-09-18T02:04:20;20.90;99.90
48752;DHT22;34544;48.836;9.174;2023-09-18T02:06:47;21.10;99.90
48752;DHT22;34544;48.836;9.174;2023-09-18T02:09:13;21.10;99.90
48752;DHT22;34544;48.836;9.174;2023-09-18T02:11:41;21.20;99.90
48752;DHT22;34544;48.836;9.174;2023-09-18T02:14:08;21.20;99.90
48752;DHT22;34544;48.836;9.174;2023-09-18T02:16:42;21.30;99.90
48752;DHT22;34544;48.836;9.174;2023-09-18T02:19:13;21.20;99.90
48752;DHT22;34544;48.836;9.174;2023-09-18T02:21:39;21.10;99.90
48752;DHT22;34544;48.836;9.174;2023-09-18T02:24:06;21.10;99.90
48752;DHT22;34544;48.836;9.174;2023-09-18T02:26:31;21.00;99.90
48752;DHT22;34544;48.836;9.174;2023-09-18T02:29:00;20.90;99.90
48752;DHT22;34544;48.836;9.174;2023-09-18T02:31:26;20.90;99.90
48752;DHT22;34544;48.836;9.174;2023-09-18T02:33:53;20.80;99.90
48752;DHT22;34544;48.836;9.174;2023-09-18T02:36:19;20.70;99.90
48752;DHT22;34544;48.836;9.174;2023-09-18T02:38:48;20.60;99.90
48752;DHT22;34544;48.836;9.174;2023-09-18T02:41:14;20.50;99.90
48752;DHT22;34544;48.836;9.174;2023-09-18T02:43:40;20.40;99.90
48752;DHT22;34544;48.836;9.174;2023-09-18T02:46:07;20.40;99.90
48752;DHT22;34544;48.836;9.174;2023-09-18T02:48:33;20.50;99.90
48752;DHT22;34544;48.836;9.174;2023-09-18T02:51:00;20.50;99.90
48752;DHT22;34544;48.836;9.174;2023-09-18T02:53:26;20.60;99.90
48752;DHT22;34544;48.836;9.174;2023-09-18T02:55:53;20.60;99.90
48752;DHT22;34544;48.836;9.174;2023-09-18T02:58:19;20.60;99.90
48752;DHT22;34544;48.836;9.174;2023-09-18T03:00:49;20.60;99.90
48752;DHT22;34544;48.836;9.174;2023-09-18T03:03:16;20.50;99.90
48752;DHT22;34544;48.836;9.174;2023-09-18T03:05:43;20.40;99.90
48752;DHT22;34544;48.836;9.174;2023-09-18T03:08:10;20.40;99.90
48752;DHT22;34544;48.836;9.174;2023-09-18T03:10:38;20.40;99.90
48752;DHT22;34544;48.836;9.174;2023-09-18T03:13:08;20.40;99.90
48752;DHT22;34544;48.836;9.174;2023-09-18T03:15:35;20.30;99.90
48752;DHT22;34544;48.836;9.174;2023-09-18T03:18:01;20.20;99.90
48752;DHT22;34544;48.836;9.174;2023-09-18T03:20:28;20.20;99.90
48752;DHT22;34544;48.836;9.174;2023-09-18T03:22:57;20.10;99.90
48752;DHT22;34544;48.836;9.174;2023-09-18T03:25:23;20.00;99.90
48752;DHT22;34544;48.836;9.174;2023-09-18T03:27:53;20.00;99.90
48752;DHT22;34544;48.836;9.174;2023-09-18T03:30:22;19.90;99.90
48752;DHT22;34544;48.836;9.174;2023-09-18T03:32:50;19.80;99.90
48752;DHT22;34544;48.836;9.174;2023-09-18T03:35:17;19.80;99.90
48752;DHT22;34544;48.836;9.174;2023-09-18T03:37:49;19.70;99.90
48752;DHT22;34544;48.836;9.174;2023-09-18T03:40:17;19.70;99.90
48752;DHT22;34544;48.836;9.174;2023-09-18T03:42:47;19.70;99.90
48752;DHT22;34544;48.836;9.174;2023-09-18T03:45:13;19.60;99.90
48752;DHT22;34544;48.836;9.174;2023-09-18T03:47:40;19.60;99.90
48752;DHT22;34544;48.836;9.174;2023-09-18T03:50:09;19.60;99.90
48752;DHT22;34544;48.836;9.174;2023-09-18T03:52:37;19.60;99.90
48752;DHT22;34544;48.836;9.174;2023-09-18T03:55:04;19.60;99.90
48752;DHT22;34544;48.836;9.174;2023-09-18T03:57:30;19.70;99.90
48752;DHT22;34544;48.836;9.174;2023-09-18T03:59:56;19.70;99.90
48752;DHT22;34544;48.836;9.174;2023-09-18T04:02:25;19.80;99.90
48752;DHT22;34544;48.836;9.174;2023-09-18T04:04:51;19.90;99.90
48752;DHT22;34544;48.836;9.174;2023-09-18T04:07:18;19.90;99.90
48752;DHT22;34544;48.836;9.174;2023-09-18T04:09:45;20.00;99.90
48752;DHT22;34544;48.836;9.174;2023-09-18T04:12:11;20.00;99.90
48752;DHT22;34544;48.836;9.174;2023-09-18T04:14:38;20.10;99.90
48752;DHT22;34544;48.836;9.174;2023-09-18T04:17:05;20.10;99.90
48752;DHT22;34544;48.836;9.174;2023-09-18T04:19:30;20.10;99.90
48752;DHT22;34544;48.836;9.174;2023-09-18T04:21:56;20.10;99.90
48752;DHT22;34544;48.836;9.174;2023-09-18T04:24:22;20.10;99.90
48752;DHT22;34544;48.836;9.174;2023-09-18T04:26:49;20.00;99.90
48752;DHT22;34544;48.836;9.174;2023-09-18T04:29:20;20.00;99.90
48752;DHT22;34544;48.836;9.174;2023-09-18T04:31:48;19.90;99.90
48752;DHT22;34544;48.836;9.174;2023-09-18T04:34:14;19.80;99.90
48752;DHT22;34544;48.836;9.174;2023-09-18T04:36:40;19.80;99.90
48752;DHT22;34544;48.836;9.174;2023-09-18T04:39:07;19.80;99.90
48752;DHT22;34544;48.836;9.174;2023-09-18T04:41:34;19.70;99.90
48752;DHT22;34544;48.836;9.174;2023-09-18T04:44:02;19.60;99.90
48752;DHT22;34544;48.836;9.174;2023-09-18T04:46:28;19.60;99.90
48752;DHT22;34544;48.836;9.174;2023-09-18T04:48:56;19.60;99.90
48752;DHT22;34544;48.836;9.174;2023-09-18T04:51:22;19.50;99.90
48752;DHT22;34544;48.836;9.174;2023-09-18T04:53:48;19.50;99.90
48752;DHT22;34544;48.836;9.174;2023-09-18T04:56:13;19.40;99.90
48752;DHT22;34544;48.836;9.174;2023-09-18T04:58:39;19.40;99.90
48752;DHT22;34544;48.836;9.174;2023-09-18T05:01:05;19.40;99.90
48752;DHT22;34544;48.836;9.174;2023-09-18T05:03:34;19.40;99.90
48752;DHT22;34544;48.836;9.174;2023-09-18T05:05:59;19.40;99.90
48752;DHT22;34544;48.836;9.174;2023-09-18T05:08:25;19.40;99.90
48752;DHT22;34544;48.836;9.174;2023-09-18T05:10:51;19.40;99.90
48752;DHT22;34544;48.836;9.174;2023-09-18T05:13:16;19.40;99.90
48752;DHT22;34544;48.836;9.174;2023-09-18T05:15:42;19.40;99.90
48752;DHT22;34544;48.836;9.174;2023-09-18T05:18:08;19.30;99.90
48752;DHT22;34544;48.836;9.174;2023-09-18T05:20:34;19.40;99.90
48752;DHT22;34544;48.836;9.174;2023-09-18T05:23:00;19.40;99.90
48752;DHT22;34544;48.836;9.174;2023-09-18T05:25:28;19.40;99.90
48752;DHT22;34544;48.836;9.174;2023-09-18T05:27:57;19.40;99.90
48752;DHT22;34544;48.836;9.174;2023-09-18T05:30:30;19.50;99.90
48752;DHT22;34544;48.836;9.174;2023-09-18T05:33:00;19.50;99.90
48752;DHT22;34544;48.836;9.174;2023-09-18T05:35:51;19.60;99.90
48752;DHT22;34544;48.836;9.174;2023-09-18T05:38:16;19.60;99.90
48752;DHT22;34544;48.836;9.174;2023-09-18T05:40:43;19.60;99.90
48752;DHT22;34544;48.836;9.174;2023-09-18T05:43:10;19.70;99.90
48752;DHT22;34544;48.836;9.174;2023-09-18T05:45:37;19.70;99.90
48752;DHT22;34544;48.836;9.174;2023-09-18T05:48:04;19.70;99.90
48752;DHT22;34544;48.836;9.174;2023-09-18T05:50:34;19.70;99.90
48752;DHT22;34544;48.836;9.174;2023-09-18T05:53:01;19.80;99.90
48752;DHT22;34544;48.836;9.174;2023-09-18T05:55:35;19.80;99.90
48752;DHT22;34544;48.836;9.174;2023-09-18T05:58:01;20.00;99.90
48752;DHT22;34544;48.836;9.174;2023-09-18T06:00:28;20.10;99.90
48752;DHT22;34544;48.836;9.174;2023-09-18T06:02:56;20.20;99.90
48752;DHT22;34544;48.836;9.174;2023-09-18T06:05:21;20.30;99.90
48752;DHT22;34544;48.836;9.174;2023-09-18T06:07:48;20.30;99.90
48752;DHT22;34544;48.836;9.174;2023-09-18T06:10:14;20.30;99.90
48752;DHT22;34544;48.836;9.174;2023-09-18T06:12:40;20.30;99.90
48752;DHT22;34544;48.836;9.174;2023-09-18T06:15:09;20.30;99.90
48752;DHT22;34544;48.836;9.174;2023-09-18T06:17:39;20.30;99.90
48752;DHT22;34544;48.836;9.174;2023-09-18T06:20:06;20.20;99.90
48752;DHT22;34544;48.836;9.174;2023-09-18T06:22:36;20.20;99.90
48752;DHT22;34544;48.836;9.174;2023-09-18T06:25:03;20.20;99.90
48752;DHT22;34544;48.836;9.174;2023-09-18T06:27:29;20.20;99.90
48752;DHT22;34544;48.836;9.174;2023-09-18T06:29:54;20.20;99.90
48752;DHT22;34544;48.836;9.174;2023-09-18T06:32:20;20.20;99.90
48752;DHT22;34544;48.836;9.174;2023-09-18T06:34:47;20.20;99.90
48752;DHT22;34544;48.836;9.174;2023-09-18T06:37:12;20.20;99.90
48752;DHT22;34544;48.836;9.174;2023-09-18T06:39:38;20.30;99.90
48752;DHT22;34544;48.836;9.174;2023-09-18T06:42:05;20.30;99.90
48752;DHT22;34544;48.836;9.174;2023-09-18T06:44:30;20.30;99.90
48752;DHT22;34544;48.836;9.174;2023-09-18T06:46:56;20.40;99.90
48752;DHT22;34544;48.836;9.174;2023-09-18T06:49:22;20.40;99.90
48752;DHT22;34544;48.836;9.174;2023-09-18T06:51:47;20.50;99.90
48752;DHT22;34544;48.836;9.174;2023-09-18T06:54:13;20.50;99.90
48752;DHT22;34544;48.836;9.174;2023-09-18T06:56:39;20.50;99.90
48752;DHT22;34544;48.836;9.174;2023-09-18T06:59:04;20.50;99.90
48752;DHT22;34544;48.836;9.174;2023-09-18T07:01:30;20.50;99.90
48752;DHT22;34544;48.836;9.174;2023-09-18T07:03:57;20.50;99.90
48752;DHT22;34544;48.836;9.174;2023-09-18T07:06:24;20.40;99.90
48752;DHT22;34544;48.836;9.174;2023-09-18T07:08:50;20.40;99.90
48752;DHT22;34544;48.836;9.174;2023-09-18T07:11:16;20.40;99.90
48752;DHT22;34544;48.836;9.174;2023-09-18T07:13:42;20.40;99.90
48752;DHT22;34544;48.836;9.174;2023-09-18T07:16:09;20.50;99.90
48752;DHT22;34544;48.836;9.174;2023-09-18T07:18:35;20.50;99.90
48752;DHT22;34544;48.836;9.174;2023-09-18T07:21:01;20.60;99.90
48752;DHT22;34544;48.836;9.174;2023-09-18T07:23:27;20.60;99.90
48752;DHT22;34544;48.836;9.174;2023-09-18T07:25:52;20.70;99.90
48752;DHT22;34544;48.836;9.174;2023-09-18T07:28:18;20.80;99.90
48752;DHT22;34544;48.836;9.174;2023-09-18T07:30:45;20.80;99.90
48752;DHT22;34544;48.836;9.174;2023-09-18T07:33:12;20.90;99.90
48752;DHT22;34544;48.836;9.174;2023-09-18T07:35:38;20.90;99.90
48752;DHT22;34544;48.836;9.174;2023-09-18T07:38:04;20.90;99.90
48752;DHT22;34544;48.836;9.174;2023-09-18T07:40:30;20.90;99.90
48752;DHT22;34544;48.836;9.174;2023-09-18T07:42:55;21.00;99.90
48752;DHT22;34544;48.836;9.174;2023-09-18T07:45:23;21.00;99.90
48752;DHT22;34544;48.836;9.174;2023-09-18T07:47:49;21.10;99.90
48752;DHT22;34544;48.836;9.174;2023-09-18T07:50:15;21.20;99.90
48752;DHT22;34544;48.836;9.174;2023-09-18T07:52:40;21.20;99.90
48752;DHT22;34544;48.836;9.174;2023-09-18T07:55:06;21.30;99.90
48752;DHT22;34544;48.836;9.174;2023-09-18T07:57:32;21.40;99.90
48752;DHT22;34544;48.836;9.174;2023-09-18T08:00:00;21.40;99.90
48752;DHT22;34544;48.836;9.174;2023-09-18T08:02:37;21.50;99.90
48752;DHT22;34544;48.836;9.174;2023-09-18T08:05:04;21.50;99.90
48752;DHT22;34544;48.836;9.174;2023-09-18T08:07:30;21.60;99.90
48752;DHT22;34544;48.836;9.174;2023-09-18T08:09:56;21.70;99.90
48752;DHT22;34544;48.836;9.174;2023-09-18T08:12:23;21.70;99.90
48752;DHT22;34544;48.836;9.174;2023-09-18T08:14:49;21.80;99.90
48752;DHT22;34544;48.836;9.174;2023-09-18T08:17:15;21.80;99.90
48752;DHT22;34544;48.836;9.174;2023-09-18T08:19:41;21.90;99.90
48752;DHT22;34544;48.836;9.174;2023-09-18T08:22:08;21.90;99.90
48752;DHT22;34544;48.836;9.174;2023-09-18T08:24:34;21.90;99.90
48752;DHT22;34544;48.836;9.174;2023-09-18T08:26:59;21.80;99.90
48752;DHT22;34544;48.836;9.174;2023-09-18T08:29:25;21.80;99.90
48752;DHT22;34544;48.836;9.174;2023-09-18T08:31:51;21.80;99.90
48752;DHT22;34544;48.836;9.174;2023-09-18T08:34:17;21.80;99.90
48752;DHT22;34544;48.836;9.174;2023-09-18T08:36:42;21.70;99.90
48752;DHT22;34544;48.836;9.174;2023-09-18T08:39:08;21.70;99.90
48752;DHT22;34544;48.836;9.174;2023-09-18T08:41:38;21.60;99.90
48752;DHT22;34544;48.836;9.174;2023-09-18T08:44:06;21.70;99.90
48752;DHT22;34544;48.836;9.174;2023-09-18T08:46:34;21.70;99.90
48752;DHT22;34544;48.836;9.174;2023-09-18T08:49:00;21.60;99.90
48752;DHT22;34544;48.836;9.174;2023-09-18T08:51:27;21.60;99.90
48752;DHT22;34544;48.836;9.174;2023-09-18T08:53:53;21.60;99.90
48752;DHT22;34544;48.836;9.174;2023-09-18T08:56:21;21.50;99.90
48752;DHT22;34544;48.836;9.174;2023-09-18T08:58:47;21.40;99.90
48752;DHT22;34544;48.836;9.174;2023-09-18T09:01:13;21.30;99.90
48752;DHT22;34544;48.836;9.174;2023-09-18T09:03:39;21.20;99.90
48752;DHT22;34544;48.836;9.174;2023-09-18T09:06:07;21.00;99.90
48752;DHT22;34544;48.836;9.174;2023-09-18T09:08:34;20.90;99.90
48752;DHT22;34544;48.836;9.174;2023-09-18T09:11:00;20.80;99.90
48752;DHT22;34544;48.836;9.174;2023-09-18T09:13:26;20.70;99.90
48752;DHT22;34544;48.836;9.174;2023-09-18T09:15:56;20.50;99.90
48752;DHT22;34544;48.836;9.174;2023-09-18T09:18:29;20.40;99.90
48752;DHT22;34544;48.836;9.174;2023-09-18T09:21:02;20.30;99.90
48752;DHT22;34544;48.836;9.174;2023-09-18T09:23:46;20.30;99.90
48752;DHT22;34544;48.836;9.174;2023-09-18T09:26:19;20.20;99.90
48752;DHT22;34544;48.836;9.174;2023-09-18T09:28:46;20.20;99.90
48752;DHT22;34544;48.836;9.174;2023-09-18T09:31:15;20.20;99.90
48752;DHT22;34544;48.836;9.174;2023-09-18T09:33:51;20.20;99.90
48752;DHT22;34544;48.836;9.174;2023-09-18T09:36:19;20.10;99.90
48752;DHT22;34544;48.836;9.174;2023-09-18T09:38:45;20.10;99.90
48752;DHT22;34544;48.836;9.174;2023-09-18T09:41:14;20.10;99.90
48752;DHT22;34544;48.836;9.174;2023-09-18T09:43:42;20.00;99.90
48752;DHT22;34544;48.836;9.174;2023-09-18T09:46:15;20.00;99.90
48752;DHT22;34544;48.836;9.174;2023-09-18T09:49:02;20.00;99.90
48752;DHT22;34544;48.836;9.174;2023-09-18T09:51:29;19.90;99.90
48752;DHT22;34544;48.836;9.174;2023-09-18T09:53:55;19.90;99.90
48752;DHT22;34544;48.836;9.174;2023-09-18T09:59:09;19.90;99.90
48752;DHT22;34544;48.836;9.174;2023-09-18T10:01:36;19.90;99.90
48752;DHT22;34544;48.836;9.174;2023-09-18T10:04:05;20.10;99.90
48752;DHT22;34544;48.836;9.174;2023-09-18T10:06:34;20.20;99.90
48752;DHT22;34544;48.836;9.174;2023-09-18T10:09:04;20.30;99.90
48752;DHT22;34544;48.836;9.174;2023-09-18T10:11:34;20.30;99.90
48752;DHT22;34544;48.836;9.174;2023-09-18T10:14:29;20.40;99.90
48752;DHT22;34544;48.836;9.174;2023-09-18T10:16:57;20.30;99.90
48752;DHT22;34544;48.836;9.174;2023-09-18T10:19:31;20.30;99.90
48752;DHT22;34544;48.836;9.174;2023-09-18T10:22:14;20.20;99.90
48752;DHT22;34544;48.836;9.174;2023-09-18T10:24:47;20.10;99.90
48752;DHT22;34544;48.836;9.174;2023-09-18T10:27:15;20.10;99.90
48752;DHT22;34544;48.836;9.174;2023-09-18T10:29:43;20.10;99.90
48752;DHT22;34544;48.836;9.174;2023-09-18T10:32:13;20.00;99.90
48752;DHT22;34544;48.836;9.174;2023-09-18T10:34:39;20.00;99.90
48752;DHT22;34544;48.836;9.174;2023-09-18T10:37:08;20.00;99.90
48752;DHT22;34544;48.836;9.174;2023-09-18T10:39:36;19.90;99.90
48752;DHT22;34544;48.836;9.174;2023-09-18T10:42:03;19.90;99.90
48752;DHT22;34544;48.836;9.174;2023-09-18T10:44:30;19.90;99.90
48752;DHT22;34544;48.836;9.174;2023-09-18T10:47:01;19.80;99.90
48752;DHT22;34544;48.836;9.174;2023-09-18T10:49:28;19.80;99.90
48752;DHT22;34544;48.836;9.174;2023-09-18T10:51:55;19.80;99.90
48752;DHT22;34544;48.836;9.174;2023-09-18T10:54:25;19.70;99.90
48752;DHT22;34544;48.836;9.174;2023-09-18T10:56:52;19.70;99.90
48752;DHT22;34544;48.836;9.174;2023-09-18T10:59:18;19.80;99.90
48752;DHT22;34544;48.836;9.174;2023-09-18T11:01:44;19.80;99.90
48752;DHT22;34544;48.836;9.174;2023-09-18T11:04:11;19.80;99.90
48752;DHT22;34544;48.836;9.174;2023-09-18T11:09:31;19.80;99.90
48752;DHT22;34544;48.836;9.174;2023-09-18T11:14:48;19.80;99.90
48752;DHT22;34544;48.836;9.174;2023-09-18T11:20:06;19.90;99.90
48752;DHT22;34544;48.836;9.174;2023-09-18T11:22:36;19.90;99.90
48752;DHT22;34544;48.836;9.174;2023-09-18T11:28:23;19.80;99.90
48752;DHT22;34544;48.836;9.174;2023-09-18T11:30:58;19.80;99.90
48752;DHT22;34544;48.836;9.174;2023-09-18T11:33:31;19.90;99.90
48752;DHT22;34544;48.836;9.174;2023-09-18T11:36:12;19.90;99.90
48752;DHT22;34544;48.836;9.174;2023-09-18T11:41:27;19.90;99.90
48752;DHT22;34544;48.836;9.174;2023-09-18T11:46:47;20.00;99.90
48752;DHT22;34544;48.836;9.174;2023-09-18T11:49:23;20.10;99.90
48752;DHT22;34544;48.836;9.174;2023-09-18T11:51:52;20.20;99.90
48752;DHT22;34544;48.836;9.174;2023-09-18T11:54:18;20.20;99.90
48752;DHT22;34544;48.836;9.174;2023-09-18T11:56:44;20.30;99.90
48752;DHT22;34544;48.836;9.174;2023-09-18T11:59:10;20.30;99.90
48752;DHT22;34544;48.836;9.174;2023-09-18T12:01:37;20.40;99.90
48752;DHT22;34544;48.836;9.174;2023-09-18T12:04:05;20.40;99.90
48752;DHT22;34544;48.836;9.174;2023-09-18T12:06:38;20.50;99.90
48752;DHT22;34544;48.836;9.174;2023-09-18T12:09:04;20.50;99.90
48752;DHT22;34544;48.836;9.174;2023-09-18T12:11:30;20.60;99.90
48752;DHT22;34544;48.836;9.174;2023-09-18T12:13:56;20.60;99.90
48752;DHT22;34544;48.836;9.174;2023-09-18T12:16:23;20.70;99.90
48752;DHT22;34544;48.836;9.174;2023-09-18T12:18:49;20.70;99.90
48752;DHT22;34544;48.836;9.174;2023-09-18T12:21:16;20.70;99.90
48752;DHT22;34544;48.836;9.174;2023-09-18T12:23:44;20.70;99.90
48752;DHT22;34544;48.836;9.174;2023-09-18T12:26:15;20.60;99.90
48752;DHT22;34544;48.836;9.174;2023-09-18T12:28:42;20.60;99.90
48752;DHT22;34544;48.836;9.174;2023-09-18T12:31:12;20.60;99.90
48752;DHT22;34544;48.836;9.174;2023-09-18T12:33:39;20.50;99.90
48752;DHT22;34544;48.836;9.174;2023-09-18T12:36:05;20.50;99.90
48752;DHT22;34544;48.836;9.174;2023-09-18T12:38:32;20.50;99.90
48752;DHT22;34544;48.836;9.174;2023-09-18T12:40:59;20.60;99.90
48752;DHT22;34544;48.836;9.174;2023-09-18T12:43:40;20.60;99.90
48752;DHT22;34544;48.836;9.174;2023-09-18T12:46:10;20.70;99.90
48752;DHT22;34544;48.836;9.174;2023-09-18T12:48:39;20.80;99.90
48752;DHT22;34544;48.836;9.174;2023-09-18T12:51:11;20.90;99.90
48752;DHT22;34544;48.836;9.174;2023-09-18T12:53:37;21.10;99.90
48752;DHT22;34544;48.836;9.174;2023-09-18T12:56:12;21.40;99.90
48752;DHT22;34544;48.836;9.174;2023-09-18T12:58:39;21.60;99.90
48752;DHT22;34544;48.836;9.174;2023-09-18T13:01:07;21.80;99.90
48752;DHT22;34544;48.836;9.174;2023-09-18T13:03:46;22.00;99.90
48752;DHT22;34544;48.836;9.174;2023-09-18T13:06:16;22.10;99.90
48752;DHT22;34544;48.836;9.174;2023-09-18T13:08:46;22.20;99.90
48752;DHT22;34544;48.836;9.174;2023-09-18T13:11:12;22.30;99.90
48752;DHT22;34544;48.836;9.174;2023-09-18T13:13:40;22.40;99.90
48752;DHT22;34544;48.836;9.174;2023-09-18T13:16:08;22.50;99.90
48752;DHT22;34544;48.836;9.174;2023-09-18T13:18:37;22.80;99.90
48752;DHT22;34544;48.836;9.174;2023-09-18T13:21:10;22.80;99.90
48752;DHT22;34544;48.836;9.174;2023-09-18T13:23:42;22.90;99.90
48752;DHT22;34544;48.836;9.174;2023-09-18T13:26:08;23.00;99.90
48752;DHT22;34544;48.836;9.174;2023-09-18T13:28:35;22.90;99.90
48752;DHT22;34544;48.836;9.174;2023-09-18T13:31:03;22.80;99.90
48752;DHT22;34544;48.836;9.174;2023-09-18T13:33:33;22.80;99.90
48752;DHT22;34544;48.836;9.174;2023-09-18T13:36:03;22.80;99.90
48752;DHT22;34544;48.836;9.174;2023-09-18T13:38:29;22.90;99.90
48752;DHT22;34544;48.836;9.174;2023-09-18T13:40:54;23.20;99.90
48752;DHT22;34544;48.836;9.174;2023-09-18T13:43:20;23.70;99.90
48752;DHT22;34544;48.836;9.174;2023-09-18T13:45:47;24.20;99.90
48752;DHT22;34544;48.836;9.174;2023-09-18T13:48:13;24.80;99.90
48752;DHT22;34544;48.836;9.174;2023-09-18T13:50:41;24.80;99.90
48752;DHT22;34544;48.836;9.174;2023-09-18T13:53:06;24.60;99.90
48752;DHT22;34544;48.836;9.174;2023-09-18T13:55:34;24.60;99.90
48752;DHT22;34544;48.836;9.174;2023-09-18T13:58:00;24.50;99.90
48752;DHT22;34544;48.836;9.174;2023-09-18T14:00:28;24.40;99.90
48752;DHT22;34544;48.836;9.174;2023-09-18T14:02:54;24.50;99.90
48752;DHT22;34544;48.836;9.174;2023-09-18T14:05:20;24.70;99.90
48752;DHT22;34544;48.836;9.174;2023-09-18T14:07:45;24.60;99.90
48752;DHT22;34544;48.836;9.174;2023-09-18T14:10:13;24.60;99.90
48752;DHT22;34544;48.836;9.174;2023-09-18T14:12:39;24.50;99.90
48752;DHT22;34544;48.836;9.174;2023-09-18T14:15:07;24.40;99.90
48752;DHT22;34544;48.836;9.174;2023-09-18T14:17:34;24.30;99.90
48752;DHT22;34544;48.836;9.174;2023-09-18T14:20:00;24.20;99.90
48752;DHT22;34544;48.836;9.174;2023-09-18T14:22:26;24.20;99.90
48752;DHT22;34544;48.836;9.174;2023-09-18T14:24:51;24.00;99.90
48752;DHT22;34544;48.836;9.174;2023-09-18T14:27:17;24.00;99.90
48752;DHT22;34544;48.836;9.174;2023-09-18T14:29:43;24.00;99.90
48752;DHT22;34544;48.836;9.174;2023-09-18T14:32:08;24.00;99.90
48752;DHT22;34544;48.836;9.174;2023-09-18T14:34:35;24.00;99.90
48752;DHT22;34544;48.836;9.174;2023-09-18T14:37:04;23.90;99.90
48752;DHT22;34544;48.836;9.174;2023-09-18T14:39:31;23.90;99.90
48752;DHT22;34544;48.836;9.174;2023-09-18T14:41:56;23.90;99.90
48752;DHT22;34544;48.836;9.174;2023-09-18T14:44:22;24.30;99.90
48752;DHT22;34544;48.836;9.174;2023-09-18T14:46:48;24.60;99.90
48752;DHT22;34544;48.836;9.174;2023-09-18T14:49:14;24.80;99.90
48752;DHT22;34544;48.836;9.174;2023-09-18T14:51:40;25.10;99.90
48752;DHT22;34544;48.836;9.174;2023-09-18T14:54:06;25.50;99.90
48752;DHT22;34544;48.836;9.174;2023-09-18T14:59:02;26.40;99.90
48752;DHT22;34544;48.836;9.174;2023-09-18T15:01:27;26.70;99.90
48752;DHT22;34544;48.836;9.174;2023-09-18T15:03:53;26.70;99.90
48752;DHT22;34544;48.836;9.174;2023-09-18T15:06:20;26.80;99.90
48752;DHT22;34544;48.836;9.174;2023-09-18T15:08:46;26.90;99.90
48752;DHT22;34544;48.836;9.174;2023-09-18T15:11:13;26.90;99.90
48752;DHT22;34544;48.836;9.174;2023-09-18T15:13:42;26.80;99.90
48752;DHT22;34544;48.836;9.174;2023-09-18T15:16:08;26.80;99.90
48752;DHT22;34544;48.836;9.174;2023-09-18T15:18:33;26.60;99.90
48752;DHT22;34544;48.836;9.174;2023-09-18T15:20:59;26.40;99.90
48752;DHT22;34544;48.836;9.174;2023-09-18T15:23:25;26.00;99.90
48752;DHT22;34544;48.836;9.174;2023-09-18T15:25:51;26.00;99.90
48752;DHT22;34544;48.836;9.174;2023-09-18T15:28:19;25.90;99.90
48752;DHT22;34544;48.836;9.174;2023-09-18T15:30:45;25.80;99.90
48752;DHT22;34544;48.836;9.174;2023-09-18T15:33:11;25.50;99.90
48752;DHT22;34544;48.836;9.174;2023-09-18T15:35:38;25.30;99.90
48752;DHT22;34544;48.836;9.174;2023-09-18T15:38:03;25.60;99.90
48752;DHT22;34544;48.836;9.174;2023-09-18T15:40:29;25.90;99.90
48752;DHT22;34544;48.836;9.174;2023-09-18T15:42:55;26.10;99.90
48752;DHT22;34544;48.836;9.174;2023-09-18T15:45:22;26.30;99.90
48752;DHT22;34544;48.836;9.174;2023-09-18T15:47:48;26.40;99.90
48752;DHT22;34544;48.836;9.174;2023-09-18T15:50:13;26.50;99.90
48752;DHT22;34544;48.836;9.174;2023-09-18T15:52:39;26.60;99.90
48752;DHT22;34544;48.836;9.174;2023-09-18T15:55:06;26.60;99.90
48752;DHT22;34544;48.836;9.174;2023-09-18T15:57:33;26.80;99.90